sensor_id;sensor_type;location;lat;lon;timestamp;P1;durP1;ratioP1;P2;durP2;ratioP2
12208;SDS011;6167;43.080;25.634;2024-02-26T00:00:18;4.38;;;3.33;;
12208;SDS011;6167;43.080;25.634;2024-02-26T00:02:45;4.63;;;3.10;;
12208;SDS011;6167;43.080;25.634;2024-02-26T00:05:12;3.50;;;3.20;;
12208;SDS011;6167;43.080;25.634;2024-02-26T00:07:39;3.50;;;3.20;;
12208;SDS011;6167;43.080;25.634;2024-02-26T00:10:06;3.40;;;3.10;;
12208;SDS011;6167;43.080;25.634;2024-02-26T00:12:34;5.10;;;3.00;;
12208;SDS011;6167;43.080;25.634;2024-02-26T00:15:02;4.07;;;3.30;;
12208;SDS011;6167;43.080;25.634;2024-02-26T00:17:29;4.10;;;3.37;;
12208;SDS011;6167;43.080;25.634;2024-02-26T00:19:56;4.63;;;2.97;;
12208;SDS011;6167;43.080;25.634;2024-02-26T00:22:23;5.57;;;3.63;;
12208;SDS011;6167;43.080;25.634;2024-02-26T00:24:50;3.90;;;3.20;;
12208;SDS011;6167;43.080;25.634;2024-02-26T00:27:17;3.03;;;2.60;;
12208;SDS011;6167;43.080;25.634;2024-02-26T00:29:44;3.07;;;2.63;;
12208;SDS011;6167;43.080;25.634;2024-02-26T00:32:12;2.80;;;2.60;;
12208;SDS011;6167;43.080;25.634;2024-02-26T00:34:39;3.10;;;2.80;;
12208;SDS011;6167;43.080;25.634;2024-02-26T00:37:05;5.03;;;2.90;;
12208;SDS011;6167;43.080;25.634;2024-02-26T00:39:32;4.00;;;2.80;;
12208;SDS011;6167;43.080;25.634;2024-02-26T00:41:59;4.60;;;3.00;;
12208;SDS011;6167;43.080;25.634;2024-02-26T00:44:26;2.93;;;2.50;;
12208;SDS011;6167;43.080;25.634;2024-02-26T00:46:53;5.20;;;2.97;;
12208;SDS011;6167;43.080;25.634;2024-02-26T00:49:21;2.90;;;2.60;;
12208;SDS011;6167;43.080;25.634;2024-02-26T00:51:48;3.30;;;3.00;;
12208;SDS011;6167;43.080;25.634;2024-02-26T00:54:15;4.57;;;2.97;;
12208;SDS011;6167;43.080;25.634;2024-02-26T00:56:41;2.87;;;2.60;;
12208;SDS011;6167;43.080;25.634;2024-02-26T00:59:08;2.73;;;2.53;;
12208;SDS011;6167;43.080;25.634;2024-02-26T01:01:35;3.30;;;2.70;;
12208;SDS011;6167;43.080;25.634;2024-02-26T01:04:02;3.13;;;2.40;;
12208;SDS011;6167;43.080;25.634;2024-02-26T01:06:30;3.00;;;2.63;;
12208;SDS011;6167;43.080;25.634;2024-02-26T01:08:57;3.27;;;2.83;;
12208;SDS011;6167;43.080;25.634;2024-02-26T01:11:24;3.77;;;3.23;;
12208;SDS011;6167;43.080;25.634;2024-02-26T01:13:51;3.33;;;2.50;;
12208;SDS011;6167;43.080;25.634;2024-02-26T01:16:21;3.23;;;2.70;;
12208;SDS011;6167;43.080;25.634;2024-02-26T01:18:48;4.27;;;2.93;;
12208;SDS011;6167;43.080;25.634;2024-02-26T01:21:15;2.97;;;2.70;;
12208;SDS011;6167;43.080;25.634;2024-02-26T01:23:43;2.93;;;2.70;;
12208;SDS011;6167;43.080;25.634;2024-02-26T01:26:10;4.67;;;2.93;;
12208;SDS011;6167;43.080;25.634;2024-02-26T01:28:37;4.43;;;3.10;;
12208;SDS011;6167;43.080;25.634;2024-02-26T01:31:04;3.30;;;3.00;;
12208;SDS011;6167;43.080;25.634;2024-02-26T01:33:32;3.30;;;3.00;;
12208;SDS011;6167;43.080;25.634;2024-02-26T01:35:59;3.87;;;3.43;;
12208;SDS011;6167;43.080;25.634;2024-02-26T01:38:26;5.57;;;3.20;;
12208;SDS011;6167;43.080;25.634;2024-02-26T01:40:55;4.17;;;3.30;;
12208;SDS011;6167;43.080;25.634;2024-02-26T01:43:22;5.30;;;3.27;;
12208;SDS011;6167;43.080;25.634;2024-02-26T01:45:49;3.27;;;2.97;;
12208;SDS011;6167;43.080;25.634;2024-02-26T01:48:16;3.20;;;3.00;;
12208;SDS011;6167;43.080;25.634;2024-02-26T01:50:43;6.73;;;3.20;;
12208;SDS011;6167;43.080;25.634;2024-02-26T01:53:09;4.17;;;2.90;;
12208;SDS011;6167;43.080;25.634;2024-02-26T01:55:37;5.33;;;3.30;;
12208;SDS011;6167;43.080;25.634;2024-02-26T01:58:05;4.20;;;3.20;;
12208;SDS011;6167;43.080;25.634;2024-02-26T02:00:33;3.67;;;3.00;;
12208;SDS011;6167;43.080;25.634;2024-02-26T02:03:00;4.20;;;3.17;;
12208;SDS011;6167;43.080;25.634;2024-02-26T02:05:28;3.43;;;3.07;;
12208;SDS011;6167;43.080;25.634;2024-02-26T02:07:55;3.30;;;3.00;;
12208;SDS011;6167;43.080;25.634;2024-02-26T02:10:23;5.57;;;3.30;;
12208;SDS011;6167;43.080;25.634;2024-02-26T02:12:53;3.73;;;2.67;;
12208;SDS011;6167;43.080;25.634;2024-02-26T02:15:21;4.43;;;3.03;;
12208;SDS011;6167;43.080;25.634;2024-02-26T02:17:48;5.20;;;3.30;;
12208;SDS011;6167;43.080;25.634;2024-02-26T02:20:15;4.50;;;3.20;;
12208;SDS011;6167;43.080;25.634;2024-02-26T02:22:44;4.70;;;3.40;;
12208;SDS011;6167;43.080;25.634;2024-02-26T02:25:12;5.60;;;4.13;;
12208;SDS011;6167;43.080;25.634;2024-02-26T02:27:39;7.57;;;5.10;;
12208;SDS011;6167;43.080;25.634;2024-02-26T02:30:07;11.87;;;5.57;;
12208;SDS011;6167;43.080;25.634;2024-02-26T02:32:35;8.53;;;5.70;;
12208;SDS011;6167;43.080;25.634;2024-02-26T02:35:04;7.17;;;5.27;;
12208;SDS011;6167;43.080;25.634;2024-02-26T02:37:31;6.07;;;4.77;;
12208;SDS011;6167;43.080;25.634;2024-02-26T02:39:59;5.57;;;3.90;;
12208;SDS011;6167;43.080;25.634;2024-02-26T02:42:26;4.53;;;4.13;;
12208;SDS011;6167;43.080;25.634;2024-02-26T02:44:53;6.33;;;4.50;;
12208;SDS011;6167;43.080;25.634;2024-02-26T02:47:20;5.53;;;4.43;;
12208;SDS011;6167;43.080;25.634;2024-02-26T02:49:46;6.13;;;4.50;;
12208;SDS011;6167;43.080;25.634;2024-02-26T02:52:13;6.30;;;4.73;;
12208;SDS011;6167;43.080;25.634;2024-02-26T02:54:40;7.93;;;4.73;;
12208;SDS011;6167;43.080;25.634;2024-02-26T02:57:08;5.47;;;4.73;;
12208;SDS011;6167;43.080;25.634;2024-02-26T02:59:35;6.53;;;4.43;;
12208;SDS011;6167;43.080;25.634;2024-02-26T03:02:03;6.40;;;4.47;;
12208;SDS011;6167;43.080;25.634;2024-02-26T03:04:31;6.43;;;4.33;;
12208;SDS011;6167;43.080;25.634;2024-02-26T03:06:58;6.70;;;4.73;;
12208;SDS011;6167;43.080;25.634;2024-02-26T03:09:25;6.90;;;4.27;;
12208;SDS011;6167;43.080;25.634;2024-02-26T03:11:52;7.83;;;5.50;;
12208;SDS011;6167;43.080;25.634;2024-02-26T03:14:20;11.07;;;4.80;;
12208;SDS011;6167;43.080;25.634;2024-02-26T03:16:47;7.70;;;6.00;;
12208;SDS011;6167;43.080;25.634;2024-02-26T03:19:14;8.90;;;5.77;;
12208;SDS011;6167;43.080;25.634;2024-02-26T03:21:41;8.83;;;5.50;;
12208;SDS011;6167;43.080;25.634;2024-02-26T03:24:08;9.20;;;5.30;;
12208;SDS011;6167;43.080;25.634;2024-02-26T03:26:35;7.53;;;4.80;;
12208;SDS011;6167;43.080;25.634;2024-02-26T03:29:02;8.53;;;5.70;;
12208;SDS011;6167;43.080;25.634;2024-02-26T03:31:30;7.53;;;5.90;;
12208;SDS011;6167;43.080;25.634;2024-02-26T03:33:57;8.33;;;5.20;;
12208;SDS011;6167;43.080;25.634;2024-02-26T03:36:24;6.57;;;5.37;;
12208;SDS011;6167;43.080;25.634;2024-02-26T03:38:52;6.00;;;5.07;;
12208;SDS011;6167;43.080;25.634;2024-02-26T03:41:18;5.43;;;4.27;;
12208;SDS011;6167;43.080;25.634;2024-02-26T03:43:45;7.53;;;4.70;;
12208;SDS011;6167;43.080;25.634;2024-02-26T03:46:12;7.17;;;4.20;;
12208;SDS011;6167;43.080;25.634;2024-02-26T03:48:41;5.27;;;3.63;;
12208;SDS011;6167;43.080;25.634;2024-02-26T03:51:08;4.53;;;3.90;;
12208;SDS011;6167;43.080;25.634;2024-02-26T03:53:35;5.90;;;4.23;;
12208;SDS011;6167;43.080;25.634;2024-02-26T03:56:03;4.07;;;3.60;;
12208;SDS011;6167;43.080;25.634;2024-02-26T03:58:30;5.00;;;3.27;;
12208;SDS011;6167;43.080;25.634;2024-02-26T04:00:57;3.40;;;3.07;;
12208;SDS011;6167;43.080;25.634;2024-02-26T04:03:24;3.20;;;2.70;;
12208;SDS011;6167;43.080;25.634;2024-02-26T04:05:52;3.27;;;2.97;;
12208;SDS011;6167;43.080;25.634;2024-02-26T04:08:19;3.53;;;3.07;;
12208;SDS011;6167;43.080;25.634;2024-02-26T04:10:46;4.83;;;3.20;;
12208;SDS011;6167;43.080;25.634;2024-02-26T04:13:12;5.13;;;3.20;;
12208;SDS011;6167;43.080;25.634;2024-02-26T04:15:39;4.47;;;3.40;;
12208;SDS011;6167;43.080;25.634;2024-02-26T04:18:06;5.20;;;3.03;;
12208;SDS011;6167;43.080;25.634;2024-02-26T04:20:33;4.37;;;3.37;;
12208;SDS011;6167;43.080;25.634;2024-02-26T04:23:01;5.05;;;3.50;;
12208;SDS011;6167;43.080;25.634;2024-02-26T04:25:28;5.00;;;3.27;;
12208;SDS011;6167;43.080;25.634;2024-02-26T04:27:55;5.40;;;3.17;;
12208;SDS011;6167;43.080;25.634;2024-02-26T04:30:22;3.80;;;3.00;;
12208;SDS011;6167;43.080;25.634;2024-02-26T04:32:49;3.70;;;3.25;;
12208;SDS011;6167;43.080;25.634;2024-02-26T04:35:16;5.73;;;3.30;;
12208;SDS011;6167;43.080;25.634;2024-02-26T04:37:42;2.97;;;2.72;;
12208;SDS011;6167;43.080;25.634;2024-02-26T04:40:11;4.13;;;2.80;;
12208;SDS011;6167;43.080;25.634;2024-02-26T04:42:38;4.17;;;2.90;;
12208;SDS011;6167;43.080;25.634;2024-02-26T04:45:05;3.92;;;3.20;;
12208;SDS011;6167;43.080;25.634;2024-02-26T04:47:33;4.63;;;2.90;;
12208;SDS011;6167;43.080;25.634;2024-02-26T04:50:00;4.05;;;3.20;;
12208;SDS011;6167;43.080;25.634;2024-02-26T04:52:27;4.97;;;3.17;;
12208;SDS011;6167;43.080;25.634;2024-02-26T04:54:54;4.18;;;3.00;;
12208;SDS011;6167;43.080;25.634;2024-02-26T04:57:22;3.53;;;3.20;;
12208;SDS011;6167;43.080;25.634;2024-02-26T04:59:49;3.60;;;3.30;;
12208;SDS011;6167;43.080;25.634;2024-02-26T05:02:16;4.73;;;3.57;;
12208;SDS011;6167;43.080;25.634;2024-02-26T05:04:43;4.50;;;3.45;;
12208;SDS011;6167;43.080;25.634;2024-02-26T05:07:09;5.18;;;3.42;;
12208;SDS011;6167;43.080;25.634;2024-02-26T05:09:37;3.42;;;3.08;;
12208;SDS011;6167;43.080;25.634;2024-02-26T05:12:04;5.40;;;3.50;;
12208;SDS011;6167;43.080;25.634;2024-02-26T05:14:33;5.23;;;3.27;;
12208;SDS011;6167;43.080;25.634;2024-02-26T05:17:00;3.55;;;3.25;;
12208;SDS011;6167;43.080;25.634;2024-02-26T05:19:26;5.30;;;3.20;;
12208;SDS011;6167;43.080;25.634;2024-02-26T05:21:53;6.57;;;3.72;;
12208;SDS011;6167;43.080;25.634;2024-02-26T05:24:20;6.30;;;3.47;;
12208;SDS011;6167;43.080;25.634;2024-02-26T05:26:47;4.67;;;3.40;;
12208;SDS011;6167;43.080;25.634;2024-02-26T05:29:14;4.10;;;3.70;;
12208;SDS011;6167;43.080;25.634;2024-02-26T05:31:43;5.63;;;4.28;;
12208;SDS011;6167;43.080;25.634;2024-02-26T05:34:10;5.90;;;3.80;;
12208;SDS011;6167;43.080;25.634;2024-02-26T05:36:37;6.13;;;3.33;;
12208;SDS011;6167;43.080;25.634;2024-02-26T05:39:04;10.23;;;4.20;;
12208;SDS011;6167;43.080;25.634;2024-02-26T05:41:31;5.47;;;3.90;;
12208;SDS011;6167;43.080;25.634;2024-02-26T05:43:58;11.50;;;5.10;;
12208;SDS011;6167;43.080;25.634;2024-02-26T05:46:25;7.60;;;4.70;;
12208;SDS011;6167;43.080;25.634;2024-02-26T05:48:53;9.50;;;5.20;;
12208;SDS011;6167;43.080;25.634;2024-02-26T05:51:20;8.48;;;4.75;;
12208;SDS011;6167;43.080;25.634;2024-02-26T05:53:47;14.32;;;4.80;;
12208;SDS011;6167;43.080;25.634;2024-02-26T05:56:18;11.32;;;5.90;;
12208;SDS011;6167;43.080;25.634;2024-02-26T05:58:46;12.32;;;5.55;;
12208;SDS011;6167;43.080;25.634;2024-02-26T06:01:13;16.25;;;6.82;;
12208;SDS011;6167;43.080;25.634;2024-02-26T06:03:42;13.25;;;6.25;;
12208;SDS011;6167;43.080;25.634;2024-02-26T06:06:10;12.00;;;6.68;;
12208;SDS011;6167;43.080;25.634;2024-02-26T06:08:38;13.57;;;5.93;;
12208;SDS011;6167;43.080;25.634;2024-02-26T06:11:05;11.75;;;4.50;;
12208;SDS011;6167;43.080;25.634;2024-02-26T06:13:33;14.48;;;6.45;;
12208;SDS011;6167;43.080;25.634;2024-02-26T06:15:59;17.23;;;5.70;;
12208;SDS011;6167;43.080;25.634;2024-02-26T06:18:27;16.45;;;7.28;;
12208;SDS011;6167;43.080;25.634;2024-02-26T06:20:53;20.00;;;6.88;;
12208;SDS011;6167;43.080;25.634;2024-02-26T06:23:22;16.17;;;6.50;;
12208;SDS011;6167;43.080;25.634;2024-02-26T06:25:49;13.97;;;7.47;;
12208;SDS011;6167;43.080;25.634;2024-02-26T06:28:16;11.23;;;5.63;;
12208;SDS011;6167;43.080;25.634;2024-02-26T06:30:43;11.67;;;5.63;;
12208;SDS011;6167;43.080;25.634;2024-02-26T06:33:10;14.60;;;6.15;;
12208;SDS011;6167;43.080;25.634;2024-02-26T06:35:37;13.80;;;6.23;;
12208;SDS011;6167;43.080;25.634;2024-02-26T06:38:04;14.20;;;6.28;;
12208;SDS011;6167;43.080;25.634;2024-02-26T06:40:32;11.50;;;6.20;;
12208;SDS011;6167;43.080;25.634;2024-02-26T06:42:59;10.67;;;6.30;;
12208;SDS011;6167;43.080;25.634;2024-02-26T06:45:26;11.50;;;6.70;;
12208;SDS011;6167;43.080;25.634;2024-02-26T06:47:52;14.43;;;8.50;;
12208;SDS011;6167;43.080;25.634;2024-02-26T06:50:20;14.07;;;8.90;;
12208;SDS011;6167;43.080;25.634;2024-02-26T06:52:47;15.70;;;9.00;;
12208;SDS011;6167;43.080;25.634;2024-02-26T06:55:14;14.73;;;9.47;;
12208;SDS011;6167;43.080;25.634;2024-02-26T06:57:42;15.13;;;9.30;;
12208;SDS011;6167;43.080;25.634;2024-02-26T07:00:10;17.00;;;8.77;;
12208;SDS011;6167;43.080;25.634;2024-02-26T07:02:40;12.40;;;8.60;;
12208;SDS011;6167;43.080;25.634;2024-02-26T07:05:07;12.35;;;8.40;;
12208;SDS011;6167;43.080;25.634;2024-02-26T07:07:34;17.30;;;9.38;;
12208;SDS011;6167;43.080;25.634;2024-02-26T07:10:01;10.45;;;6.80;;
12208;SDS011;6167;43.080;25.634;2024-02-26T07:12:30;91.45;;;40.33;;
12208;SDS011;6167;43.080;25.634;2024-02-26T07:14:58;22.15;;;11.52;;
12208;SDS011;6167;43.080;25.634;2024-02-26T07:17:25;15.85;;;9.65;;
12208;SDS011;6167;43.080;25.634;2024-02-26T07:19:52;22.90;;;10.52;;
12208;SDS011;6167;43.080;25.634;2024-02-26T07:22:19;17.88;;;9.70;;
12208;SDS011;6167;43.080;25.634;2024-02-26T07:24:46;20.77;;;10.35;;
12208;SDS011;6167;43.080;25.634;2024-02-26T07:27:14;13.73;;;9.57;;
12208;SDS011;6167;43.080;25.634;2024-02-26T07:29:42;10.65;;;6.45;;
12208;SDS011;6167;43.080;25.634;2024-02-26T07:32:10;12.95;;;6.10;;
12208;SDS011;6167;43.080;25.634;2024-02-26T07:34:37;14.05;;;8.38;;
12208;SDS011;6167;43.080;25.634;2024-02-26T07:37:07;12.85;;;7.90;;
12208;SDS011;6167;43.080;25.634;2024-02-26T07:39:34;17.85;;;7.20;;
12208;SDS011;6167;43.080;25.634;2024-02-26T07:42:02;10.90;;;6.70;;
12208;SDS011;6167;43.080;25.634;2024-02-26T07:44:29;10.98;;;5.97;;
12208;SDS011;6167;43.080;25.634;2024-02-26T07:46:56;10.95;;;5.97;;
12208;SDS011;6167;43.080;25.634;2024-02-26T07:49:26;9.07;;;4.82;;
12208;SDS011;6167;43.080;25.634;2024-02-26T07:51:53;8.48;;;5.00;;
12208;SDS011;6167;43.080;25.634;2024-02-26T07:54:20;7.57;;;4.50;;
12208;SDS011;6167;43.080;25.634;2024-02-26T07:56:46;7.07;;;4.60;;
12208;SDS011;6167;43.080;25.634;2024-02-26T07:59:13;10.25;;;4.50;;
12208;SDS011;6167;43.080;25.634;2024-02-26T08:01:40;9.15;;;4.43;;
12208;SDS011;6167;43.080;25.634;2024-02-26T08:04:07;3.80;;;3.00;;
12208;SDS011;6167;43.080;25.634;2024-02-26T08:06:35;7.28;;;3.60;;
12208;SDS011;6167;43.080;25.634;2024-02-26T08:09:02;7.60;;;4.10;;
12208;SDS011;6167;43.080;25.634;2024-02-26T08:11:29;11.65;;;6.22;;
12208;SDS011;6167;43.080;25.634;2024-02-26T08:13:56;8.05;;;5.25;;
12208;SDS011;6167;43.080;25.634;2024-02-26T08:16:24;13.88;;;6.00;;
12208;SDS011;6167;43.080;25.634;2024-02-26T08:18:51;7.78;;;4.75;;
12208;SDS011;6167;43.080;25.634;2024-02-26T08:21:18;8.23;;;4.38;;
12208;SDS011;6167;43.080;25.634;2024-02-26T08:23:46;8.32;;;5.28;;
12208;SDS011;6167;43.080;25.634;2024-02-26T08:26:13;8.57;;;3.90;;
12208;SDS011;6167;43.080;25.634;2024-02-26T08:28:40;10.93;;;3.42;;
12208;SDS011;6167;43.080;25.634;2024-02-26T08:31:07;6.78;;;3.95;;
12208;SDS011;6167;43.080;25.634;2024-02-26T08:33:34;7.07;;;4.28;;
12208;SDS011;6167;43.080;25.634;2024-02-26T08:36:03;5.80;;;3.80;;
12208;SDS011;6167;43.080;25.634;2024-02-26T08:38:30;7.10;;;3.70;;
12208;SDS011;6167;43.080;25.634;2024-02-26T08:41:01;7.82;;;4.35;;
12208;SDS011;6167;43.080;25.634;2024-02-26T08:43:28;3.38;;;3.08;;
12208;SDS011;6167;43.080;25.634;2024-02-26T08:45:55;4.20;;;3.10;;
12208;SDS011;6167;43.080;25.634;2024-02-26T08:48:22;3.47;;;2.30;;
12208;SDS011;6167;43.080;25.634;2024-02-26T08:50:49;3.13;;;2.28;;
12208;SDS011;6167;43.080;25.634;2024-02-26T08:53:16;3.17;;;2.60;;
12208;SDS011;6167;43.080;25.634;2024-02-26T08:55:43;4.78;;;2.70;;
12208;SDS011;6167;43.080;25.634;2024-02-26T08:58:11;4.38;;;2.50;;
12208;SDS011;6167;43.080;25.634;2024-02-26T09:00:38;3.05;;;2.33;;
12208;SDS011;6167;43.080;25.634;2024-02-26T09:03:05;2.83;;;2.10;;
12208;SDS011;6167;43.080;25.634;2024-02-26T09:05:32;5.15;;;2.40;;
12208;SDS011;6167;43.080;25.634;2024-02-26T09:07:58;3.25;;;2.00;;
12208;SDS011;6167;43.080;25.634;2024-02-26T09:10:25;3.15;;;2.28;;
12208;SDS011;6167;43.080;25.634;2024-02-26T09:12:52;2.90;;;2.08;;
12208;SDS011;6167;43.080;25.634;2024-02-26T09:15:21;4.22;;;2.50;;
12208;SDS011;6167;43.080;25.634;2024-02-26T09:17:48;4.10;;;2.60;;
12208;SDS011;6167;43.080;25.634;2024-02-26T09:20:17;4.07;;;2.28;;
12208;SDS011;6167;43.080;25.634;2024-02-26T09:22:45;5.45;;;2.53;;
12208;SDS011;6167;43.080;25.634;2024-02-26T09:25:12;3.38;;;2.00;;
12208;SDS011;6167;43.080;25.634;2024-02-26T09:27:40;2.40;;;2.20;;
12208;SDS011;6167;43.080;25.634;2024-02-26T09:30:08;4.03;;;2.40;;
12208;SDS011;6167;43.080;25.634;2024-02-26T09:32:37;4.75;;;2.60;;
12208;SDS011;6167;43.080;25.634;2024-02-26T09:35:05;2.58;;;2.05;;
12208;SDS011;6167;43.080;25.634;2024-02-26T09:37:32;3.72;;;2.17;;
12208;SDS011;6167;43.080;25.634;2024-02-26T09:40:02;5.22;;;3.88;;
12208;SDS011;6167;43.080;25.634;2024-02-26T09:42:31;2.45;;;2.10;;
12208;SDS011;6167;43.080;25.634;2024-02-26T09:44:59;4.30;;;1.83;;
12208;SDS011;6167;43.080;25.634;2024-02-26T09:47:28;3.33;;;2.17;;
12208;SDS011;6167;43.080;25.634;2024-02-26T09:49:59;3.25;;;2.15;;
12208;SDS011;6167;43.080;25.634;2024-02-26T09:52:29;3.30;;;2.17;;
12208;SDS011;6167;43.080;25.634;2024-02-26T09:54:59;3.88;;;2.45;;
12208;SDS011;6167;43.080;25.634;2024-02-26T09:57:28;2.25;;;2.05;;
12208;SDS011;6167;43.080;25.634;2024-02-26T09:59:55;3.25;;;2.00;;
12208;SDS011;6167;43.080;25.634;2024-02-26T10:02:29;3.55;;;2.10;;
12208;SDS011;6167;43.080;25.634;2024-02-26T10:04:58;4.93;;;3.78;;
12208;SDS011;6167;43.080;25.634;2024-02-26T10:07:30;7.13;;;4.57;;
12208;SDS011;6167;43.080;25.634;2024-02-26T10:09:57;3.42;;;1.90;;
12208;SDS011;6167;43.080;25.634;2024-02-26T10:12:24;2.72;;;2.13;;
12208;SDS011;6167;43.080;25.634;2024-02-26T10:14:54;2.72;;;1.80;;
12208;SDS011;6167;43.080;25.634;2024-02-26T10:17:21;4.03;;;1.98;;
12208;SDS011;6167;43.080;25.634;2024-02-26T10:19:48;3.53;;;2.00;;
12208;SDS011;6167;43.080;25.634;2024-02-26T10:22:18;4.45;;;2.17;;
12208;SDS011;6167;43.080;25.634;2024-02-26T10:24:46;3.35;;;1.90;;
12208;SDS011;6167;43.080;25.634;2024-02-26T10:27:13;2.70;;;2.15;;
12208;SDS011;6167;43.080;25.634;2024-02-26T10:29:41;4.43;;;2.40;;
12208;SDS011;6167;43.080;25.634;2024-02-26T10:32:08;4.68;;;1.95;;
12208;SDS011;6167;43.080;25.634;2024-02-26T10:34:36;3.58;;;2.00;;
12208;SDS011;6167;43.080;25.634;2024-02-26T10:37:04;2.83;;;2.10;;
12208;SDS011;6167;43.080;25.634;2024-02-26T10:39:33;2.60;;;1.80;;
12208;SDS011;6167;43.080;25.634;2024-02-26T10:42:02;2.53;;;1.83;;
12208;SDS011;6167;43.080;25.634;2024-02-26T10:44:35;5.57;;;2.50;;
12208;SDS011;6167;43.080;25.634;2024-02-26T10:47:01;4.93;;;2.60;;
12208;SDS011;6167;43.080;25.634;2024-02-26T10:49:29;5.35;;;2.60;;
12208;SDS011;6167;43.080;25.634;2024-02-26T10:51:56;3.80;;;2.20;;
12208;SDS011;6167;43.080;25.634;2024-02-26T10:54:23;3.47;;;1.73;;
12208;SDS011;6167;43.080;25.634;2024-02-26T10:56:55;4.70;;;2.05;;
12208;SDS011;6167;43.080;25.634;2024-02-26T10:59:23;8.13;;;1.88;;
12208;SDS011;6167;43.080;25.634;2024-02-26T11:01:50;2.63;;;2.10;;
12208;SDS011;6167;43.080;25.634;2024-02-26T11:04:17;2.00;;;1.77;;
12208;SDS011;6167;43.080;25.634;2024-02-26T11:06:45;2.30;;;2.00;;
12208;SDS011;6167;43.080;25.634;2024-02-26T11:09:12;3.90;;;1.88;;
12208;SDS011;6167;43.080;25.634;2024-02-26T11:11:40;3.63;;;2.10;;
12208;SDS011;6167;43.080;25.634;2024-02-26T11:14:10;3.15;;;1.75;;
12208;SDS011;6167;43.080;25.634;2024-02-26T11:16:38;3.20;;;1.73;;
12208;SDS011;6167;43.080;25.634;2024-02-26T11:19:06;2.55;;;2.08;;
12208;SDS011;6167;43.080;25.634;2024-02-26T11:21:36;4.47;;;1.80;;
12208;SDS011;6167;43.080;25.634;2024-02-26T11:24:11;2.25;;;1.60;;
12208;SDS011;6167;43.080;25.634;2024-02-26T11:26:39;3.90;;;1.40;;
12208;SDS011;6167;43.080;25.634;2024-02-26T11:29:11;3.33;;;1.98;;
12208;SDS011;6167;43.080;25.634;2024-02-26T11:31:43;2.38;;;1.58;;
12208;SDS011;6167;43.080;25.634;2024-02-26T11:34:10;1.65;;;1.55;;
12208;SDS011;6167;43.080;25.634;2024-02-26T11:36:38;10.45;;;2.15;;
12208;SDS011;6167;43.080;25.634;2024-02-26T11:39:05;6.30;;;2.80;;
12208;SDS011;6167;43.080;25.634;2024-02-26T11:41:32;1.85;;;1.60;;
12208;SDS011;6167;43.080;25.634;2024-02-26T11:44:00;2.42;;;1.80;;
12208;SDS011;6167;43.080;25.634;2024-02-26T11:46:31;1.83;;;1.50;;
12208;SDS011;6167;43.080;25.634;2024-02-26T11:48:59;2.28;;;1.73;;
12208;SDS011;6167;43.080;25.634;2024-02-26T11:51:27;2.90;;;1.60;;
12208;SDS011;6167;43.080;25.634;2024-02-26T11:53:58;3.42;;;1.85;;
12208;SDS011;6167;43.080;25.634;2024-02-26T11:56:25;1.90;;;1.45;;
12208;SDS011;6167;43.080;25.634;2024-02-26T11:58:56;2.60;;;1.63;;
12208;SDS011;6167;43.080;25.634;2024-02-26T12:04:21;1.67;;;1.52;;
12208;SDS011;6167;43.080;25.634;2024-02-26T12:06:54;2.25;;;1.55;;
12208;SDS011;6167;43.080;25.634;2024-02-26T12:09:32;2.58;;;1.50;;
12208;SDS011;6167;43.080;25.634;2024-02-26T12:12:01;1.75;;;1.50;;
12208;SDS011;6167;43.080;25.634;2024-02-26T12:14:28;2.40;;;1.80;;
12208;SDS011;6167;43.080;25.634;2024-02-26T12:16:56;2.63;;;1.52;;
12208;SDS011;6167;43.080;25.634;2024-02-26T12:19:24;2.42;;;1.55;;
12208;SDS011;6167;43.080;25.634;2024-02-26T12:21:52;4.90;;;2.08;;
12208;SDS011;6167;43.080;25.634;2024-02-26T12:24:20;3.20;;;1.90;;
12208;SDS011;6167;43.080;25.634;2024-02-26T12:26:47;2.38;;;1.50;;
12208;SDS011;6167;43.080;25.634;2024-02-26T12:29:14;2.20;;;1.67;;
12208;SDS011;6167;43.080;25.634;2024-02-26T12:31:41;2.50;;;1.90;;
12208;SDS011;6167;43.080;25.634;2024-02-26T12:34:09;2.63;;;1.58;;
12208;SDS011;6167;43.080;25.634;2024-02-26T12:36:36;3.33;;;1.90;;
12208;SDS011;6167;43.080;25.634;2024-02-26T12:39:05;3.00;;;1.88;;
12208;SDS011;6167;43.080;25.634;2024-02-26T12:41:34;2.38;;;1.50;;
12208;SDS011;6167;43.080;25.634;2024-02-26T12:44:03;1.70;;;1.60;;
12208;SDS011;6167;43.080;25.634;2024-02-26T12:46:29;2.72;;;1.70;;
12208;SDS011;6167;43.080;25.634;2024-02-26T12:48:58;1.90;;;1.80;;
12208;SDS011;6167;43.080;25.634;2024-02-26T12:51:27;3.15;;;2.10;;
12208;SDS011;6167;43.080;25.634;2024-02-26T12:53:54;4.13;;;1.83;;
12208;SDS011;6167;43.080;25.634;2024-02-26T12:56:22;1.88;;;1.65;;
12208;SDS011;6167;43.080;25.634;2024-02-26T12:58:50;4.30;;;2.13;;
12208;SDS011;6167;43.080;25.634;2024-02-26T13:01:19;2.72;;;2.00;;
12208;SDS011;6167;43.080;25.634;2024-02-26T13:03:50;4.55;;;2.10;;
12208;SDS011;6167;43.080;25.634;2024-02-26T13:06:18;2.78;;;2.15;;
12208;SDS011;6167;43.080;25.634;2024-02-26T13:08:48;6.35;;;2.20;;
12208;SDS011;6167;43.080;25.634;2024-02-26T13:11:15;2.88;;;2.38;;
12208;SDS011;6167;43.080;25.634;2024-02-26T13:13:42;3.22;;;2.00;;
12208;SDS011;6167;43.080;25.634;2024-02-26T13:16:09;2.80;;;1.85;;
12208;SDS011;6167;43.080;25.634;2024-02-26T13:18:40;2.92;;;2.30;;
12208;SDS011;6167;43.080;25.634;2024-02-26T13:21:08;3.03;;;1.83;;
12208;SDS011;6167;43.080;25.634;2024-02-26T13:23:36;2.28;;;2.08;;
12208;SDS011;6167;43.080;25.634;2024-02-26T13:26:05;3.13;;;1.80;;
12208;SDS011;6167;43.080;25.634;2024-02-26T13:28:33;3.92;;;1.90;;
12208;SDS011;6167;43.080;25.634;2024-02-26T13:31:01;3.80;;;2.10;;
12208;SDS011;6167;43.080;25.634;2024-02-26T13:33:29;4.05;;;2.08;;
12208;SDS011;6167;43.080;25.634;2024-02-26T13:35:57;3.08;;;1.70;;
12208;SDS011;6167;43.080;25.634;2024-02-26T13:38:25;2.83;;;1.85;;
12208;SDS011;6167;43.080;25.634;2024-02-26T13:40:53;2.95;;;2.10;;
12208;SDS011;6167;43.080;25.634;2024-02-26T13:43:22;3.80;;;2.00;;
12208;SDS011;6167;43.080;25.634;2024-02-26T13:45:49;5.00;;;2.80;;
12208;SDS011;6167;43.080;25.634;2024-02-26T13:48:16;2.50;;;2.00;;
12208;SDS011;6167;43.080;25.634;2024-02-26T13:50:43;2.75;;;2.10;;
12208;SDS011;6167;43.080;25.634;2024-02-26T13:53:11;5.85;;;2.40;;
12208;SDS011;6167;43.080;25.634;2024-02-26T13:55:39;4.18;;;2.47;;
12208;SDS011;6167;43.080;25.634;2024-02-26T13:58:08;2.70;;;2.35;;
12208;SDS011;6167;43.080;25.634;2024-02-26T14:00:39;3.30;;;2.58;;
12208;SDS011;6167;43.080;25.634;2024-02-26T14:03:08;3.47;;;2.45;;
12208;SDS011;6167;43.080;25.634;2024-02-26T14:05:34;3.17;;;2.30;;
12208;SDS011;6167;43.080;25.634;2024-02-26T14:08:01;4.43;;;2.42;;
12208;SDS011;6167;43.080;25.634;2024-02-26T14:10:28;4.13;;;2.60;;
12208;SDS011;6167;43.080;25.634;2024-02-26T14:12:59;5.13;;;3.30;;
12208;SDS011;6167;43.080;25.634;2024-02-26T14:15:27;5.22;;;2.75;;
12208;SDS011;6167;43.080;25.634;2024-02-26T14:17:56;5.32;;;3.47;;
12208;SDS011;6167;43.080;25.634;2024-02-26T14:20:23;3.72;;;3.05;;
12208;SDS011;6167;43.080;25.634;2024-02-26T14:22:51;4.13;;;3.05;;
12208;SDS011;6167;43.080;25.634;2024-02-26T14:25:18;3.33;;;3.03;;
12208;SDS011;6167;43.080;25.634;2024-02-26T14:27:46;3.97;;;3.15;;
12208;SDS011;6167;43.080;25.634;2024-02-26T14:30:13;5.25;;;2.80;;
12208;SDS011;6167;43.080;25.634;2024-02-26T14:32:40;5.25;;;2.70;;
12208;SDS011;6167;43.080;25.634;2024-02-26T14:35:10;3.85;;;2.75;;
12208;SDS011;6167;43.080;25.634;2024-02-26T14:37:36;5.13;;;2.95;;
12208;SDS011;6167;43.080;25.634;2024-02-26T14:40:04;3.53;;;3.22;;
12208;SDS011;6167;43.080;25.634;2024-02-26T14:42:33;5.10;;;3.85;;
12208;SDS011;6167;43.080;25.634;2024-02-26T14:45:00;4.60;;;2.95;;
12208;SDS011;6167;43.080;25.634;2024-02-26T14:47:27;4.90;;;3.40;;
12208;SDS011;6167;43.080;25.634;2024-02-26T14:49:54;5.00;;;3.25;;